Latest Weather Observations for Cape Wessel

IDD60801

Issued at 4:05 pm CST Thursday 17 April 2014 (issued every 30 minutes, with the page automatically refreshed every 10 minutes)

About weather observations | Map of weather stations | Latest weather observations for NT | Other Formats
Station Details ID: 200786 Name: CAPE WESSEL Lat: -11.00 Lon: 136.76 Height: 18.0 m
Data from the previous 72 hours. | See also: Recent months for locations in Northern Territory
Date/Time
CST
Temp
°C
App
Temp
°C
Dew
Point
Rel
Hum
%
Delta-T
°C
Wind Press
QNH
hPa
Press
MSL
hPa
Rain
since 9 am
mm
Dir
 
Spd
km/h
Gust
km/h
Spd
kts
Gust
kts
17/04:00pm 29.4 32.5 25.4 79 2.8 E 19 22 10 12 1007.7 - 0.0
17/03:30pm 30.3 33.2 25.4 75 3.5 E 20 24 11 13 1007.7 - 0.0
17/03:00pm 30.8 33.8 26.1 76 3.4 E 22 28 12 15 1007.8 1007.7 0.0
17/02:30pm 30.3 33.8 26.9 82 2.4 E 22 30 12 16 1008.0 - 0.0
17/02:00pm 30.1 33.8 27.7 87 1.7 E 24 30 13 16 1008.2 - 0.0
17/01:30pm 28.4 32.6 27.0 92 1.0 E 19 28 10 15 1008.6 - 0.0
17/01:00pm 27.8 30.3 26.0 90 1.3 ENE 24 32 13 17 1009.3 - 0.0
17/12:32pm 31.1 32.7 25.7 73 3.8 E 28 46 15 25 1009.6 - 0.0
17/12:30pm 31.1 32.9 25.4 71 4.0 E 26 32 14 17 1009.5 - 0.0
17/12:00pm 32.2 35.0 27.0 74 3.8 E 26 32 14 17 1010.0 1009.9 0.0
17/11:30am 32.0 34.5 27.0 75 3.6 E 28 33 15 18 1010.6 - 0.0
17/11:00am 30.8 33.4 27.2 81 2.6 E 28 35 15 19 1011.1 - 0.0
17/10:30am 29.5 31.1 26.3 83 2.3 E 30 33 16 18 1011.3 - 0.0
17/10:00am 29.2 30.6 26.0 83 2.3 E 30 35 16 19 1011.2 - 0.0
17/09:30am 29.2 31.0 26.6 86 1.9 ESE 30 35 16 19 1011.1 - 0.0
17/09:00am 29.0 30.5 26.2 85 2.0 ESE 30 39 16 21 1010.9 1010.8 0.0
17/08:30am 28.9 29.4 25.5 82 2.4 ESE 33 43 18 23 1010.9 - 0.0
17/08:00am 28.9 30.2 25.9 84 2.1 SE 30 37 16 20 1010.5 - 0.0
17/07:30am 28.7 28.9 25.1 81 2.5 ESE 33 43 18 23 1010.4 - 0.0
17/07:00am 28.5 29.2 25.5 84 2.1 SE 32 41 17 22 1010.0 - 0.0
17/06:30am 28.4 29.7 25.2 83 2.2 SE 28 33 15 18 1009.7 - 0.0
17/06:00am 28.2 28.8 24.2 79 2.8 SE 28 33 15 18 1009.3 1009.2 0.0
17/05:30am 28.3 28.5 24.1 78 2.9 SE 30 37 16 20 1009.0 - 0.0
17/05:00am 28.1 29.4 24.1 79 2.8 SE 24 30 13 16 1008.7 - 0.0
17/04:30am 28.0 29.7 24.0 79 2.8 SE 22 28 12 15 1008.6 - 0.0
17/04:00am 28.0 29.7 24.6 82 2.4 SE 24 30 13 16 1008.6 - 0.0
17/03:30am 28.2 29.4 23.8 77 3.0 SE 24 32 13 17 1008.6 - 0.0
17/03:00am 28.4 28.6 23.5 75 3.4 SE 28 32 15 17 1008.9 1008.8 0.0
17/02:30am 28.1 29.2 23.7 77 3.0 SE 24 30 13 16 1009.1 - 0.0
17/02:00am 28.4 30.1 24.6 80 2.6 SE 24 28 13 15 1009.2 - 0.0
17/01:30am 28.3 30.1 24.3 79 2.8 SE 22 28 12 15 1009.3 - 0.0
17/01:00am 28.3 30.4 24.1 78 2.9 SE 20 28 11 15 1009.7 - 0.0
17/12:30am 28.3 30.2 23.7 76 3.2 SE 20 26 11 14 1010.0 - 0.0
17/12:00am 28.5 30.5 23.9 76 3.2 SE 20 24 11 13 1010.2 1010.1 0.0
 
Date/Time
CST
Temp
°C
App
Temp
°C
Dew
Point
Rel
Hum
%
Delta-T
°C
Wind Press
QNH
hPa
Press
MSL
hPa
Rain
since 9 am
mm
Dir
 
Spd
km/h
Gust
km/h
Spd
kts
Gust
kts
16/11:30pm 28.5 30.3 23.6 75 3.4 SE 20 24 11 13 1010.5 - 0.0
16/11:00pm 28.5 30.3 23.2 73 3.6 SE 19 24 10 13 1010.7 - 0.0
16/10:30pm 28.7 30.5 23.6 74 3.5 SE 20 24 11 13 1010.9 - 0.0
16/10:00pm 28.8 30.2 23.5 73 3.6 SE 22 26 12 14 1010.7 - 0.0
16/09:30pm 28.6 30.2 23.3 73 3.6 SE 20 26 11 14 1010.6 - 0.0
16/09:00pm 28.5 30.3 23.6 75 3.4 SE 20 24 11 13 1010.6 1010.5 0.0
16/08:30pm 28.5 30.1 23.9 76 3.2 SE 22 26 12 14 1010.1 - 0.0
16/08:00pm 28.3 30.0 23.4 75 3.4 SE 20 26 11 14 1009.8 - 0.0
16/07:30pm 28.2 30.2 23.6 76 3.2 SE 19 22 10 12 1009.6 - 0.0
16/07:00pm 28.0 30.1 23.1 74 3.3 SE 17 20 9 11 1009.1 - 0.0
16/06:30pm 28.0 30.3 22.7 73 3.6 SE 15 19 8 10 1008.7 - 0.0
16/06:00pm 28.6 31.0 22.3 68 4.3 SE 13 17 7 9 1008.4 1008.3 0.0
16/05:30pm 29.5 32.1 22.7 67 4.6 SE 13 17 7 9 1008.1 - 0.0
16/05:00pm 30.6 34.1 23.5 66 4.9 ESE 11 17 6 9 1008.0 - 0.0
16/04:30pm 30.6 33.4 23.0 64 5.2 E 13 17 7 9 1007.9 - 0.0
16/04:00pm 31.2 33.8 23.3 63 5.4 ESE 15 19 8 10 1007.8 - 0.0
16/03:30pm 31.6 34.8 23.7 63 5.5 ESE 13 19 7 10 1007.9 - 0.0
16/03:00pm 31.6 34.5 23.2 61 5.8 ESE 13 17 7 9 1008.1 1008.0 0.0
16/02:30pm 32.0 34.3 23.5 60 5.9 E 17 20 9 11 1008.4 - 0.0
16/02:00pm 32.3 34.8 23.8 61 5.9 E 17 20 9 11 1008.8 - 0.0
16/01:30pm 32.3 35.0 23.5 59 6.1 E 15 19 8 10 1009.2 - 0.0
16/01:00pm 32.3 35.0 23.5 59 6.1 E 15 19 8 10 1009.4 - 0.0
16/12:30pm 32.3 35.6 23.8 61 5.9 E 13 19 7 10 1009.7 - 0.0
16/12:00pm 32.2 35.6 24.0 62 5.7 E 13 15 7 8 1009.9 1009.8 0.0
16/11:30am 32.1 36.0 24.2 63 5.5 ENE 11 13 6 7 1010.1 - 0.0
16/11:00am 32.5 36.4 24.8 64 5.4 NE 13 17 7 9 1010.5 - 0.0
16/10:30am 31.4 34.7 23.8 64 5.3 NE 13 17 7 9 1010.8 - 0.0
16/10:00am 31.3 34.2 23.9 64 5.1 NE 15 19 8 10 1010.9 - 0.0
16/09:30am 30.9 34.5 24.3 68 4.6 ENE 13 17 7 9 1010.8 - 0.0
16/09:00am 30.6 33.9 24.5 70 4.3 ENE 15 17 8 9 1010.7 1010.6 0.0
16/08:30am 30.0 34.0 24.4 72 3.9 E 11 13 6 7 1010.6 - 0.0
16/08:00am 29.9 34.5 24.8 74 3.6 E 9 11 5 6 1010.6 - 0.0
16/07:30am 29.0 32.8 24.1 75 3.4 E 11 15 6 8 1010.5 - 0.0
16/07:00am 28.0 31.3 23.8 78 2.9 E 13 15 7 8 1010.2 - 0.0
16/06:30am 26.6 29.1 22.4 78 2.8 ENE 13 17 7 9 1009.9 - 0.0
16/06:00am 26.6 29.3 22.2 77 3.0 E 11 15 6 8 1009.8 1009.7 0.0
16/05:30am 26.6 29.3 22.2 77 3.0 ENE 11 13 6 7 1009.6 - 0.0
16/05:00am 26.7 29.0 22.1 76 3.1 E 13 17 7 9 1009.5 - 0.0
16/04:30am 26.8 29.4 22.0 75 3.2 E 11 15 6 8 1009.4 - 0.0
16/04:00am 27.0 29.3 22.0 74 3.4 E 13 17 7 9 1009.4 - 0.0
16/03:30am 27.4 29.6 22.6 75 3.3 E 15 17 8 9 1009.5 - 0.0
16/03:00am 27.1 29.1 22.3 75 3.2 E 15 17 8 9 1009.5 1009.4 0.0
16/02:30am 27.2 29.6 22.2 74 3.4 E 13 15 7 8 1009.7 - 0.0
16/02:00am 27.4 29.8 22.3 73 3.4 E 13 17 7 9 1009.8 - 0.0
16/01:30am 27.7 29.5 22.6 74 3.5 ESE 17 20 9 11 1010.0 - 0.0
16/12:30am 28.0 30.1 23.1 74 3.3 SE 17 20 9 11 1010.6 - 0.0
16/12:00am 27.7 30.6 23.1 76 3.1 ESE 13 17 7 9 1010.9 1010.8 0.0
 
Date/Time
CST
Temp
°C
App
Temp
°C
Dew
Point
Rel
Hum
%
Delta-T
°C
Wind Press
QNH
hPa
Press
MSL
hPa
Rain
since 9 am
mm
Dir
 
Spd
km/h
Gust
km/h
Spd
kts
Gust
kts
15/11:30pm 27.9 30.6 23.5 77 3.0 ESE 15 17 8 9 1011.0 - 0.0
15/11:00pm 27.9 31.0 23.5 77 3.0 ESE 13 17 7 9 1010.9 - 0.0
15/10:30pm 27.8 31.1 23.8 79 2.8 ESE 13 15 7 8 1010.9 - 0.0
15/10:00pm 27.7 31.2 23.5 78 2.9 E 11 15 6 8 1010.9 - 0.0
15/09:30pm 27.7 30.9 23.1 76 3.1 E 11 15 6 8 1011.0 - 0.0
15/09:00pm 27.9 30.8 23.1 75 3.3 E 13 17 7 9 1010.8 1010.7 0.0
15/08:30pm 27.8 31.0 23.0 75 3.3 E 11 15 6 8 1010.6 - 0.0
15/08:00pm 27.7 30.8 22.9 75 3.3 E 11 15 6 8 1010.2 - 0.0
15/07:30pm 27.8 30.6 23.0 75 3.3 E 13 17 7 9 1009.8 - 0.0
15/07:00pm 28.0 30.9 23.1 74 3.3 E 13 15 7 8 1009.4 - 0.0
15/06:30pm 28.0 30.7 22.9 74 3.5 E 13 17 7 9 1009.0 - 0.0
15/06:00pm 28.6 31.7 22.8 71 4.0 ESE 11 15 6 8 1008.7 1008.6 0.0
15/05:30pm 29.3 32.1 23.0 69 4.3 E 13 17 7 9 1008.4 - 0.0
15/05:00pm 30.3 33.5 23.7 68 4.6 E 13 17 7 9 1008.4 - 0.0
15/04:30pm 30.7 33.6 23.1 64 5.2 ESE 13 17 7 9 1008.2 - 0.0
15/04:00pm 31.1 33.9 23.0 62 5.6 E 13 15 7 8 1008.3 - 0.0
15/03:30pm 31.9 35.3 24.0 63 5.5 E 13 15 7 8 1008.2 - 0.0
15/03:00pm 32.2 36.0 24.0 62 5.7 E 11 15 6 8 1008.5 1008.4 0.0
15/02:30pm 32.3 36.0 24.6 64 5.4 ENE 13 15 7 8 1008.8 - 0.0
15/02:00pm 32.3 36.0 24.6 64 5.4 ENE 13 17 7 9 1009.2 - 0.0
15/01:30pm 32.3 36.2 24.3 62 5.6 ENE 11 17 6 9 1009.5 - 0.0
15/01:00pm 31.9 36.3 25.0 67 4.9 E 11 15 6 8 1010.0 - 0.0
15/12:30pm 31.5 35.0 24.9 68 4.6 E 15 19 8 10 1010.3 - 0.0
15/12:00pm 31.6 35.6 25.0 68 4.7 E 13 15 7 8 1010.7 1010.6 0.0
15/11:30am 31.6 35.7 25.2 69 4.5 E 13 15 7 8 1011.2 - 0.0
15/11:00am 31.3 35.6 24.9 69 4.5 E 11 15 6 8 1011.6 - 0.0
15/10:30am 31.4 35.1 24.5 67 4.8 ENE 13 15 7 8 1011.9 - 0.0
15/10:00am 31.9 36.5 26.0 71 4.2 E 13 15 7 8 1011.8 - 0.0
15/09:30am 30.9 35.2 25.5 73 3.8 E 13 17 7 9 1011.7 - 0.0
15/09:00am 30.2 34.2 25.0 73 3.7 E 13 17 7 9 1011.6 1011.5 0.0
15/08:30am 30.5 35.1 26.0 77 3.2 E 13 17 7 9 1011.4 - 0.0
15/08:00am 29.2 33.3 25.2 79 2.8 E 13 17 7 9 1011.1 - 0.0
15/07:30am 28.6 32.6 25.0 81 2.5 E 13 17 7 9 1010.7 - 0.0
15/07:00am 28.2 31.8 25.0 83 2.2 E 15 17 8 9 1010.4 - 0.0
15/06:30am 27.9 31.7 25.3 86 1.8 ESE 15 17 8 9 1010.1 - 0.0
15/06:00am 27.8 31.9 25.2 86 1.8 E 13 17 7 9 1009.8 1009.7 0.0
15/05:30am 27.7 31.2 24.9 85 2.0 ESE 15 19 8 10 1009.7 - 0.0
15/05:00am 27.7 31.4 25.1 86 1.8 ESE 15 19 8 10 1009.5 - 0.0
15/04:30am 27.4 31.4 25.0 87 1.7 E 13 17 7 9 1009.3 - 0.0
15/04:00am 27.2 31.4 24.8 87 1.7 ESE 11 15 6 8 1009.0 - 0.0
15/03:30am 27.2 31.1 24.8 87 1.7 E 13 15 7 8 1009.0 - 0.0
15/03:00am 27.2 30.9 24.6 86 1.8 SE 13 17 7 9 1009.2 1009.1 0.0
15/02:30am 27.1 30.5 24.0 83 2.1 ESE 13 17 7 9 1009.3 - 0.0
15/02:00am 27.0 30.6 23.7 82 2.3 ESE 11 15 6 8 1009.4 - 0.0
15/01:30am 27.0 30.0 23.3 80 2.5 ESE 13 15 7 8 1009.6 - 0.0
15/01:00am 26.8 29.5 22.8 79 2.7 ESE 13 15 7 8 1009.8 - 0.0
15/12:30am 26.4 30.6 24.1 87 1.6 S 9 13 5 7 1010.0 - 0.0
15/12:00am 25.3 30.3 23.2 88 1.4 WSW 2 11 1 6 1010.3 1010.2 0.0
 
Date/Time
CST
Temp
°C
App
Temp
°C
Dew
Point
Rel
Hum
%
Delta-T
°C
Wind Press
QNH
hPa
Press
MSL
hPa
Rain
since 9 am
mm
Dir
 
Spd
km/h
Gust
km/h
Spd
kts
Gust
kts
14/11:30pm 26.0 30.3 23.7 87 1.6 WSW 7 9 4 5 1010.4 - 0.0
14/11:00pm 26.0 29.8 23.5 86 1.7 WSW 9 11 5 6 1010.1 - 0.0
14/10:30pm 26.0 29.7 23.3 85 1.8 WSW 9 9 5 5 1010.2 - 0.0
14/10:00pm 25.9 29.3 23.4 86 1.7 WSW 11 11 6 6 1010.4 - 0.0
14/09:30pm 25.9 29.2 23.2 85 1.8 W 11 13 6 7 1010.4 - 0.0
14/09:00pm 25.6 29.5 22.5 83 2.1 W 6 7 3 4 1010.4 1010.3 0.0
14/08:30pm 26.3 30.1 23.4 84 2.0 W 9 9 5 5 1010.1 - 0.0
14/08:00pm 26.2 30.3 22.9 82 2.2 NNW 6 13 3 7 1009.7 - 0.0
14/07:30pm 26.1 30.9 22.2 79 2.6 CALM 0 0 0 0 1009.2 - 0.0
14/07:00pm 26.5 30.4 21.9 76 3.1 N 4 7 2 4 1008.7 - 0.0
14/06:30pm 27.3 30.7 22.0 73 3.6 N 7 9 4 5 1008.5 - 0.0
14/06:00pm 28.1 31.8 22.6 72 3.7 NNW 7 9 4 5 1008.1 1008.0 0.0
14/05:30pm 29.1 33.2 23.3 71 4.0 N 7 9 4 5 1007.9 - 0.0
14/05:00pm 29.6 33.6 23.1 68 4.5 NNW 7 9 4 5 1007.7 - 0.0
14/04:30pm 29.8 33.3 22.8 66 4.8 NW 9 11 5 6 1007.7 - 0.0

Other Formats:

Comma delimited format used in spreadsheet applications
http://www.bom.gov.au/fwo/IDD60801/IDD60801.94147.axf

JavaScript Object Notation format (JSON) in row-major order
http://www.bom.gov.au/fwo/IDD60801/IDD60801.94147.json